sensor_id;sensor_type;location;lat;lon;timestamp;P1;durP1;ratioP1;P2;durP2;ratioP2
60896;SDS011;46749;32.932;-117.130;2022-07-05T00:00:48;2.05;;;0.55;;
60896;SDS011;46749;32.932;-117.130;2022-07-05T00:03:14;0.43;;;0.30;;
60896;SDS011;46749;32.932;-117.130;2022-07-05T00:05:41;1.00;;;0.30;;
60896;SDS011;46749;32.932;-117.130;2022-07-05T00:08:07;0.73;;;0.30;;
60896;SDS011;46749;32.932;-117.130;2022-07-05T00:10:34;0.63;;;0.30;;
60896;SDS011;46749;32.932;-117.130;2022-07-05T00:13:01;0.52;;;0.35;;
60896;SDS011;46749;32.932;-117.130;2022-07-05T00:15:28;1.27;;;0.40;;
60896;SDS011;46749;32.932;-117.130;2022-07-05T00:17:54;0.30;;;0.30;;
60896;SDS011;46749;32.932;-117.130;2022-07-05T00:20:21;0.40;;;0.30;;
60896;SDS011;46749;32.932;-117.130;2022-07-05T00:22:47;1.45;;;0.30;;
60896;SDS011;46749;32.932;-117.130;2022-07-05T00:25:13;0.68;;;0.40;;
60896;SDS011;46749;32.932;-117.130;2022-07-05T00:27:40;2.00;;;0.40;;
60896;SDS011;46749;32.932;-117.130;2022-07-05T00:30:07;1.17;;;0.30;;
60896;SDS011;46749;32.932;-117.130;2022-07-05T00:32:34;1.00;;;0.40;;
60896;SDS011;46749;32.932;-117.130;2022-07-05T00:35:00;0.45;;;0.38;;
60896;SDS011;46749;32.932;-117.130;2022-07-05T00:37:26;0.45;;;0.30;;
60896;SDS011;46749;32.932;-117.130;2022-07-05T00:39:52;1.27;;;0.30;;
60896;SDS011;46749;32.932;-117.130;2022-07-05T00:42:18;0.40;;;0.30;;
60896;SDS011;46749;32.932;-117.130;2022-07-05T00:44:44;0.32;;;0.30;;
60896;SDS011;46749;32.932;-117.130;2022-07-05T00:47:11;0.38;;;0.32;;
60896;SDS011;46749;32.932;-117.130;2022-07-05T00:49:38;0.32;;;0.20;;
60896;SDS011;46749;32.932;-117.130;2022-07-05T00:52:05;0.30;;;0.30;;
60896;SDS011;46749;32.932;-117.130;2022-07-05T00:54:34;1.42;;;0.20;;
60896;SDS011;46749;32.932;-117.130;2022-07-05T00:57:02;0.30;;;0.30;;
60896;SDS011;46749;32.932;-117.130;2022-07-05T00:59:28;0.90;;;0.30;;
60896;SDS011;46749;32.932;-117.130;2022-07-05T01:01:56;0.40;;;0.32;;
60896;SDS011;46749;32.932;-117.130;2022-07-05T01:04:23;0.75;;;0.30;;
60896;SDS011;46749;32.932;-117.130;2022-07-05T01:06:50;0.43;;;0.30;;
60896;SDS011;46749;32.932;-117.130;2022-07-05T01:09:17;0.32;;;0.30;;
60896;SDS011;46749;32.932;-117.130;2022-07-05T01:11:45;0.45;;;0.30;;
60896;SDS011;46749;32.932;-117.130;2022-07-05T01:14:15;0.30;;;0.30;;
60896;SDS011;46749;32.932;-117.130;2022-07-05T01:16:43;0.40;;;0.20;;
60896;SDS011;46749;32.932;-117.130;2022-07-05T01:19:10;0.30;;;0.30;;
60896;SDS011;46749;32.932;-117.130;2022-07-05T01:21:38;0.32;;;0.20;;
60896;SDS011;46749;32.932;-117.130;2022-07-05T01:24:13;0.68;;;0.28;;
60896;SDS011;46749;32.932;-117.130;2022-07-05T01:26:41;0.40;;;0.38;;
60896;SDS011;46749;32.932;-117.130;2022-07-05T01:29:08;0.40;;;0.30;;
60896;SDS011;46749;32.932;-117.130;2022-07-05T01:31:38;0.40;;;0.30;;
60896;SDS011;46749;32.932;-117.130;2022-07-05T01:34:05;0.30;;;0.30;;
60896;SDS011;46749;32.932;-117.130;2022-07-05T01:36:32;0.20;;;0.20;;
60896;SDS011;46749;32.932;-117.130;2022-07-05T01:39:00;0.40;;;0.38;;
60896;SDS011;46749;32.932;-117.130;2022-07-05T01:41:28;0.30;;;0.30;;
60896;SDS011;46749;32.932;-117.130;2022-07-05T01:43:55;0.30;;;0.30;;
60896;SDS011;46749;32.932;-117.130;2022-07-05T01:46:21;0.30;;;0.20;;
60896;SDS011;46749;32.932;-117.130;2022-07-05T01:48:51;0.20;;;0.20;;
60896;SDS011;46749;32.932;-117.130;2022-07-05T01:51:29;0.38;;;0.30;;
60896;SDS011;46749;32.932;-117.130;2022-07-05T01:53:58;0.30;;;0.30;;
60896;SDS011;46749;32.932;-117.130;2022-07-05T01:56:25;0.20;;;0.20;;
60896;SDS011;46749;32.932;-117.130;2022-07-05T01:58:51;0.30;;;0.30;;
60896;SDS011;46749;32.932;-117.130;2022-07-05T02:01:34;0.43;;;0.30;;
60896;SDS011;46749;32.932;-117.130;2022-07-05T02:04:05;0.43;;;0.32;;
60896;SDS011;46749;32.932;-117.130;2022-07-05T02:06:33;0.40;;;0.30;;
60896;SDS011;46749;32.932;-117.130;2022-07-05T02:09:00;0.30;;;0.30;;
60896;SDS011;46749;32.932;-117.130;2022-07-05T02:11:28;0.20;;;0.20;;
60896;SDS011;46749;32.932;-117.130;2022-07-05T02:13:54;0.22;;;0.22;;
60896;SDS011;46749;32.932;-117.130;2022-07-05T02:16:24;0.20;;;0.20;;
60896;SDS011;46749;32.932;-117.130;2022-07-05T02:18:51;0.22;;;0.20;;
60896;SDS011;46749;32.932;-117.130;2022-07-05T02:21:18;0.20;;;0.20;;
60896;SDS011;46749;32.932;-117.130;2022-07-05T02:23:45;0.30;;;0.20;;
60896;SDS011;46749;32.932;-117.130;2022-07-05T02:26:11;0.20;;;0.20;;
60896;SDS011;46749;32.932;-117.130;2022-07-05T02:28:37;0.20;;;0.20;;
60896;SDS011;46749;32.932;-117.130;2022-07-05T02:31:04;0.55;;;0.25;;
60896;SDS011;46749;32.932;-117.130;2022-07-05T02:33:30;0.30;;;0.30;;
60896;SDS011;46749;32.932;-117.130;2022-07-05T02:35:56;0.22;;;0.22;;
60896;SDS011;46749;32.932;-117.130;2022-07-05T02:38:23;0.30;;;0.30;;
60896;SDS011;46749;32.932;-117.130;2022-07-05T02:40:49;0.20;;;0.20;;
60896;SDS011;46749;32.932;-117.130;2022-07-05T02:43:15;0.20;;;0.20;;
60896;SDS011;46749;32.932;-117.130;2022-07-05T02:45:41;0.30;;;0.30;;
60896;SDS011;46749;32.932;-117.130;2022-07-05T02:48:07;0.20;;;0.20;;
60896;SDS011;46749;32.932;-117.130;2022-07-05T02:50:34;0.20;;;0.20;;
60896;SDS011;46749;32.932;-117.130;2022-07-05T02:53:00;0.15;;;0.15;;
60896;SDS011;46749;32.932;-117.130;2022-07-05T02:55:26;0.43;;;0.30;;
60896;SDS011;46749;32.932;-117.130;2022-07-05T02:57:52;0.35;;;0.20;;
60896;SDS011;46749;32.932;-117.130;2022-07-05T03:00:18;0.20;;;0.20;;
60896;SDS011;46749;32.932;-117.130;2022-07-05T03:02:44;0.40;;;0.22;;
60896;SDS011;46749;32.932;-117.130;2022-07-05T03:05:10;0.65;;;0.28;;
60896;SDS011;46749;32.932;-117.130;2022-07-05T03:07:36;0.17;;;0.17;;
60896;SDS011;46749;32.932;-117.130;2022-07-05T03:10:03;0.20;;;0.17;;
60896;SDS011;46749;32.932;-117.130;2022-07-05T03:12:29;0.10;;;0.10;;
60896;SDS011;46749;32.932;-117.130;2022-07-05T03:14:55;0.17;;;0.17;;
60896;SDS011;46749;32.932;-117.130;2022-07-05T03:17:21;0.28;;;0.20;;
60896;SDS011;46749;32.932;-117.130;2022-07-05T03:19:47;0.10;;;0.10;;
60896;SDS011;46749;32.932;-117.130;2022-07-05T03:22:13;0.20;;;0.20;;
60896;SDS011;46749;32.932;-117.130;2022-07-05T03:24:40;0.10;;;0.10;;
60896;SDS011;46749;32.932;-117.130;2022-07-05T03:27:06;0.20;;;0.20;;
60896;SDS011;46749;32.932;-117.130;2022-07-05T03:29:32;0.30;;;0.25;;
60896;SDS011;46749;32.932;-117.130;2022-07-05T03:31:58;0.15;;;0.15;;
60896;SDS011;46749;32.932;-117.130;2022-07-05T03:34:24;0.20;;;0.20;;
60896;SDS011;46749;32.932;-117.130;2022-07-05T03:36:50;0.20;;;0.20;;
60896;SDS011;46749;32.932;-117.130;2022-07-05T03:39:16;0.38;;;0.30;;
60896;SDS011;46749;32.932;-117.130;2022-07-05T03:41:43;0.10;;;0.10;;
60896;SDS011;46749;32.932;-117.130;2022-07-05T03:44:09;0.20;;;0.20;;
60896;SDS011;46749;32.932;-117.130;2022-07-05T03:46:35;0.20;;;0.20;;
60896;SDS011;46749;32.932;-117.130;2022-07-05T03:49:01;0.10;;;0.10;;
60896;SDS011;46749;32.932;-117.130;2022-07-05T03:51:27;0.10;;;0.10;;
60896;SDS011;46749;32.932;-117.130;2022-07-05T03:53:54;0.15;;;0.15;;
60896;SDS011;46749;32.932;-117.130;2022-07-05T03:56:20;0.20;;;0.20;;
60896;SDS011;46749;32.932;-117.130;2022-07-05T03:58:51;0.10;;;0.10;;
60896;SDS011;46749;32.932;-117.130;2022-07-05T04:01:17;0.10;;;0.10;;
60896;SDS011;46749;32.932;-117.130;2022-07-05T04:03:43;0.10;;;0.10;;
60896;SDS011;46749;32.932;-117.130;2022-07-05T04:06:10;0.10;;;0.10;;
60896;SDS011;46749;32.932;-117.130;2022-07-05T04:08:36;0.15;;;0.10;;
60896;SDS011;46749;32.932;-117.130;2022-07-05T04:11:03;0.15;;;0.10;;
60896;SDS011;46749;32.932;-117.130;2022-07-05T04:13:29;0.20;;;0.20;;
60896;SDS011;46749;32.932;-117.130;2022-07-05T04:15:56;0.10;;;0.10;;
60896;SDS011;46749;32.932;-117.130;2022-07-05T04:18:22;0.20;;;0.20;;
60896;SDS011;46749;32.932;-117.130;2022-07-05T04:20:48;0.10;;;0.10;;
60896;SDS011;46749;32.932;-117.130;2022-07-05T04:23:14;0.20;;;0.20;;
60896;SDS011;46749;32.932;-117.130;2022-07-05T04:25:40;0.10;;;0.10;;
60896;SDS011;46749;32.932;-117.130;2022-07-05T04:28:07;0.10;;;0.10;;
60896;SDS011;46749;32.932;-117.130;2022-07-05T04:30:33;0.10;;;0.10;;
60896;SDS011;46749;32.932;-117.130;2022-07-05T04:32:59;0.25;;;0.15;;
60896;SDS011;46749;32.932;-117.130;2022-07-05T04:35:25;0.20;;;0.20;;
60896;SDS011;46749;32.932;-117.130;2022-07-05T04:37:52;0.20;;;0.20;;
60896;SDS011;46749;32.932;-117.130;2022-07-05T04:40:18;0.10;;;0.10;;
60896;SDS011;46749;32.932;-117.130;2022-07-05T04:42:44;0.20;;;0.20;;
60896;SDS011;46749;32.932;-117.130;2022-07-05T04:45:10;0.20;;;0.20;;
60896;SDS011;46749;32.932;-117.130;2022-07-05T04:47:36;0.10;;;0.10;;
60896;SDS011;46749;32.932;-117.130;2022-07-05T04:50:03;0.10;;;0.10;;
60896;SDS011;46749;32.932;-117.130;2022-07-05T04:52:30;0.20;;;0.10;;
60896;SDS011;46749;32.932;-117.130;2022-07-05T04:54:56;0.20;;;0.20;;
60896;SDS011;46749;32.932;-117.130;2022-07-05T04:57:23;0.10;;;0.10;;
60896;SDS011;46749;32.932;-117.130;2022-07-05T04:59:49;0.20;;;0.10;;
60896;SDS011;46749;32.932;-117.130;2022-07-05T05:02:15;0.10;;;0.10;;
60896;SDS011;46749;32.932;-117.130;2022-07-05T05:04:41;0.10;;;0.10;;
60896;SDS011;46749;32.932;-117.130;2022-07-05T05:07:07;0.22;;;0.10;;
60896;SDS011;46749;32.932;-117.130;2022-07-05T05:09:34;0.10;;;0.10;;
60896;SDS011;46749;32.932;-117.130;2022-07-05T05:12:00;0.10;;;0.10;;
60896;SDS011;46749;32.932;-117.130;2022-07-05T05:14:26;0.10;;;0.10;;
60896;SDS011;46749;32.932;-117.130;2022-07-05T05:16:52;0.10;;;0.10;;
60896;SDS011;46749;32.932;-117.130;2022-07-05T05:19:18;0.10;;;0.10;;
60896;SDS011;46749;32.932;-117.130;2022-07-05T05:21:45;0.10;;;0.10;;
60896;SDS011;46749;32.932;-117.130;2022-07-05T05:24:13;0.10;;;0.10;;
60896;SDS011;46749;32.932;-117.130;2022-07-05T05:26:39;0.10;;;0.10;;
60896;SDS011;46749;32.932;-117.130;2022-07-05T05:29:05;0.10;;;0.10;;
60896;SDS011;46749;32.932;-117.130;2022-07-05T05:31:31;0.10;;;0.10;;
60896;SDS011;46749;32.932;-117.130;2022-07-05T05:33:57;0.10;;;0.10;;
60896;SDS011;46749;32.932;-117.130;2022-07-05T05:36:23;0.10;;;0.10;;
60896;SDS011;46749;32.932;-117.130;2022-07-05T05:38:49;0.10;;;0.10;;
60896;SDS011;46749;32.932;-117.130;2022-07-05T05:41:15;0.10;;;0.10;;
60896;SDS011;46749;32.932;-117.130;2022-07-05T05:43:41;0.10;;;0.10;;
60896;SDS011;46749;32.932;-117.130;2022-07-05T05:46:08;0.10;;;0.10;;
60896;SDS011;46749;32.932;-117.130;2022-07-05T05:48:34;0.17;;;0.10;;
60896;SDS011;46749;32.932;-117.130;2022-07-05T05:51:00;0.10;;;0.10;;
60896;SDS011;46749;32.932;-117.130;2022-07-05T05:53:26;0.17;;;0.17;;
60896;SDS011;46749;32.932;-117.130;2022-07-05T05:55:52;0.10;;;0.10;;
60896;SDS011;46749;32.932;-117.130;2022-07-05T05:58:19;0.10;;;0.10;;
60896;SDS011;46749;32.932;-117.130;2022-07-05T06:00:46;0.10;;;0.10;;
60896;SDS011;46749;32.932;-117.130;2022-07-05T06:03:19;0.10;;;0.10;;
60896;SDS011;46749;32.932;-117.130;2022-07-05T06:05:50;0.10;;;0.10;;
60896;SDS011;46749;32.932;-117.130;2022-07-05T06:08:16;0.10;;;0.10;;
60896;SDS011;46749;32.932;-117.130;2022-07-05T06:10:44;0.57;;;0.10;;
60896;SDS011;46749;32.932;-117.130;2022-07-05T06:13:11;0.20;;;0.10;;
60896;SDS011;46749;32.932;-117.130;2022-07-05T06:15:39;0.10;;;0.10;;
60896;SDS011;46749;32.932;-117.130;2022-07-05T06:18:06;0.10;;;0.10;;
60896;SDS011;46749;32.932;-117.130;2022-07-05T06:20:34;0.10;;;0.10;;
60896;SDS011;46749;32.932;-117.130;2022-07-05T06:23:04;0.28;;;0.28;;
60896;SDS011;46749;32.932;-117.130;2022-07-05T06:25:31;0.10;;;0.10;;
60896;SDS011;46749;32.932;-117.130;2022-07-05T06:27:59;0.10;;;0.10;;
60896;SDS011;46749;32.932;-117.130;2022-07-05T06:30:29;0.08;;;0.08;;
60896;SDS011;46749;32.932;-117.130;2022-07-05T06:32:57;0.10;;;0.10;;
60896;SDS011;46749;32.932;-117.130;2022-07-05T06:35:23;0.10;;;0.10;;
60896;SDS011;46749;32.932;-117.130;2022-07-05T06:43:05;0.10;;;0.10;;
60896;SDS011;46749;32.932;-117.130;2022-07-05T06:45:32;0.10;;;0.10;;
60896;SDS011;46749;32.932;-117.130;2022-07-05T06:48:00;0.10;;;0.10;;
60896;SDS011;46749;32.932;-117.130;2022-07-05T06:50:28;0.20;;;0.20;;
60896;SDS011;46749;32.932;-117.130;2022-07-05T06:52:56;0.10;;;0.10;;
60896;SDS011;46749;32.932;-117.130;2022-07-05T06:55:23;0.10;;;0.10;;
60896;SDS011;46749;32.932;-117.130;2022-07-05T06:57:55;0.10;;;0.10;;
60896;SDS011;46749;32.932;-117.130;2022-07-05T07:00:24;0.32;;;0.10;;
60896;SDS011;46749;32.932;-117.130;2022-07-05T07:02:50;0.10;;;0.10;;
60896;SDS011;46749;32.932;-117.130;2022-07-05T07:05:16;0.10;;;0.10;;
60896;SDS011;46749;32.932;-117.130;2022-07-05T07:07:42;0.10;;;0.10;;
60896;SDS011;46749;32.932;-117.130;2022-07-05T07:10:27;0.10;;;0.10;;
60896;SDS011;46749;32.932;-117.130;2022-07-05T07:12:53;0.10;;;0.10;;
60896;SDS011;46749;32.932;-117.130;2022-07-05T07:15:19;0.00;;;0.00;;
60896;SDS011;46749;32.932;-117.130;2022-07-05T07:17:46;0.13;;;0.10;;
60896;SDS011;46749;32.932;-117.130;2022-07-05T07:20:12;0.10;;;0.10;;
60896;SDS011;46749;32.932;-117.130;2022-07-05T07:22:38;0.10;;;0.10;;
60896;SDS011;46749;32.932;-117.130;2022-07-05T07:25:05;0.10;;;0.03;;
60896;SDS011;46749;32.932;-117.130;2022-07-05T07:27:40;0.10;;;0.10;;
60896;SDS011;46749;32.932;-117.130;2022-07-05T07:30:09;0.00;;;0.00;;
60896;SDS011;46749;32.932;-117.130;2022-07-05T07:32:55;0.10;;;0.10;;
60896;SDS011;46749;32.932;-117.130;2022-07-05T07:35:21;0.10;;;0.10;;
60896;SDS011;46749;32.932;-117.130;2022-07-05T07:37:48;0.10;;;0.10;;
60896;SDS011;46749;32.932;-117.130;2022-07-05T07:40:14;0.00;;;0.00;;
60896;SDS011;46749;32.932;-117.130;2022-07-05T07:42:40;0.05;;;0.05;;
60896;SDS011;46749;32.932;-117.130;2022-07-05T07:45:06;0.10;;;0.10;;
60896;SDS011;46749;32.932;-117.130;2022-07-05T07:47:34;0.10;;;0.10;;
60896;SDS011;46749;32.932;-117.130;2022-07-05T07:50:02;0.00;;;0.00;;
60896;SDS011;46749;32.932;-117.130;2022-07-05T07:52:29;0.00;;;0.00;;
60896;SDS011;46749;32.932;-117.130;2022-07-05T07:54:59;0.00;;;0.00;;
60896;SDS011;46749;32.932;-117.130;2022-07-05T07:57:26;0.10;;;0.10;;
60896;SDS011;46749;32.932;-117.130;2022-07-05T07:59:52;0.13;;;0.10;;
60896;SDS011;46749;32.932;-117.130;2022-07-05T08:02:19;0.10;;;0.10;;
60896;SDS011;46749;32.932;-117.130;2022-07-05T08:04:46;0.00;;;0.00;;
60896;SDS011;46749;32.932;-117.130;2022-07-05T08:07:14;0.10;;;0.10;;
60896;SDS011;46749;32.932;-117.130;2022-07-05T08:09:40;0.10;;;0.10;;
60896;SDS011;46749;32.932;-117.130;2022-07-05T08:12:06;0.10;;;0.10;;
60896;SDS011;46749;32.932;-117.130;2022-07-05T08:14:33;0.10;;;0.10;;
60896;SDS011;46749;32.932;-117.130;2022-07-05T08:16:59;0.10;;;0.10;;
60896;SDS011;46749;32.932;-117.130;2022-07-05T08:19:25;0.10;;;0.10;;
60896;SDS011;46749;32.932;-117.130;2022-07-05T08:22:09;0.10;;;0.10;;
60896;SDS011;46749;32.932;-117.130;2022-07-05T08:24:36;0.03;;;0.03;;
60896;SDS011;46749;32.932;-117.130;2022-07-05T08:27:05;0.10;;;0.10;;
60896;SDS011;46749;32.932;-117.130;2022-07-05T08:29:31;0.00;;;0.00;;
60896;SDS011;46749;32.932;-117.130;2022-07-05T08:31:58;0.00;;;0.00;;
60896;SDS011;46749;32.932;-117.130;2022-07-05T08:34:24;0.00;;;0.00;;
60896;SDS011;46749;32.932;-117.130;2022-07-05T08:36:50;0.00;;;0.00;;
60896;SDS011;46749;32.932;-117.130;2022-07-05T08:39:16;0.10;;;0.10;;
60896;SDS011;46749;32.932;-117.130;2022-07-05T08:41:43;0.10;;;0.10;;
60896;SDS011;46749;32.932;-117.130;2022-07-05T08:44:15;0.00;;;0.00;;
60896;SDS011;46749;32.932;-117.130;2022-07-05T08:46:47;0.10;;;0.10;;
60896;SDS011;46749;32.932;-117.130;2022-07-05T08:49:18;0.17;;;0.00;;
60896;SDS011;46749;32.932;-117.130;2022-07-05T08:51:56;0.10;;;0.10;;
60896;SDS011;46749;32.932;-117.130;2022-07-05T08:54:23;0.40;;;0.10;;
60896;SDS011;46749;32.932;-117.130;2022-07-05T08:56:50;0.10;;;0.10;;
60896;SDS011;46749;32.932;-117.130;2022-07-05T08:59:16;0.00;;;0.00;;
60896;SDS011;46749;32.932;-117.130;2022-07-05T09:01:44;0.10;;;0.10;;
60896;SDS011;46749;32.932;-117.130;2022-07-05T09:04:12;0.03;;;0.03;;
60896;SDS011;46749;32.932;-117.130;2022-07-05T09:06:41;0.10;;;0.10;;
60896;SDS011;46749;32.932;-117.130;2022-07-05T09:09:10;0.10;;;0.10;;
60896;SDS011;46749;32.932;-117.130;2022-07-05T09:11:39;0.10;;;0.10;;
60896;SDS011;46749;32.932;-117.130;2022-07-05T09:14:16;0.10;;;0.10;;
60896;SDS011;46749;32.932;-117.130;2022-07-05T09:16:48;0.10;;;0.10;;
60896;SDS011;46749;32.932;-117.130;2022-07-05T09:19:14;0.10;;;0.10;;
60896;SDS011;46749;32.932;-117.130;2022-07-05T09:21:40;0.10;;;0.10;;
60896;SDS011;46749;32.932;-117.130;2022-07-05T09:24:10;0.05;;;0.05;;
60896;SDS011;46749;32.932;-117.130;2022-07-05T09:27:04;0.10;;;0.10;;
60896;SDS011;46749;32.932;-117.130;2022-07-05T09:29:31;0.10;;;0.10;;
60896;SDS011;46749;32.932;-117.130;2022-07-05T09:31:57;0.00;;;0.00;;
60896;SDS011;46749;32.932;-117.130;2022-07-05T09:34:23;0.10;;;0.10;;
60896;SDS011;46749;32.932;-117.130;2022-07-05T09:37:01;0.10;;;0.10;;
60896;SDS011;46749;32.932;-117.130;2022-07-05T09:44:38;0.00;;;0.00;;
60896;SDS011;46749;32.932;-117.130;2022-07-05T09:47:09;0.10;;;0.10;;
60896;SDS011;46749;32.932;-117.130;2022-07-05T09:49:37;0.00;;;0.00;;
60896;SDS011;46749;32.932;-117.130;2022-07-05T09:52:10;0.00;;;0.00;;
60896;SDS011;46749;32.932;-117.130;2022-07-05T09:55:00;0.08;;;0.08;;
60896;SDS011;46749;32.932;-117.130;2022-07-05T09:57:28;0.10;;;0.10;;
60896;SDS011;46749;32.932;-117.130;2022-07-05T10:00:03;0.03;;;0.03;;
60896;SDS011;46749;32.932;-117.130;2022-07-05T10:02:34;0.08;;;0.08;;
60896;SDS011;46749;32.932;-117.130;2022-07-05T10:05:14;0.13;;;0.00;;
60896;SDS011;46749;32.932;-117.130;2022-07-05T10:07:46;0.00;;;0.00;;
60896;SDS011;46749;32.932;-117.130;2022-07-05T10:10:17;0.00;;;0.00;;
60896;SDS011;46749;32.932;-117.130;2022-07-05T10:12:45;0.35;;;0.10;;
60896;SDS011;46749;32.932;-117.130;2022-07-05T10:15:17;0.00;;;0.00;;
60896;SDS011;46749;32.932;-117.130;2022-07-05T10:17:46;0.05;;;0.00;;
60896;SDS011;46749;32.932;-117.130;2022-07-05T10:22:50;0.00;;;0.00;;
60896;SDS011;46749;32.932;-117.130;2022-07-05T10:25:17;0.00;;;0.00;;
60896;SDS011;46749;32.932;-117.130;2022-07-05T10:27:43;0.00;;;0.00;;
60896;SDS011;46749;32.932;-117.130;2022-07-05T10:30:10;0.17;;;0.10;;
60896;SDS011;46749;32.932;-117.130;2022-07-05T10:32:38;0.00;;;0.00;;
60896;SDS011;46749;32.932;-117.130;2022-07-05T10:35:05;0.10;;;0.10;;
60896;SDS011;46749;32.932;-117.130;2022-07-05T10:37:32;0.00;;;0.00;;
60896;SDS011;46749;32.932;-117.130;2022-07-05T10:40:00;0.03;;;0.03;;
60896;SDS011;46749;32.932;-117.130;2022-07-05T10:42:31;0.00;;;0.00;;
60896;SDS011;46749;32.932;-117.130;2022-07-05T10:45:00;0.00;;;0.00;;
60896;SDS011;46749;32.932;-117.130;2022-07-05T10:47:27;0.00;;;0.00;;
60896;SDS011;46749;32.932;-117.130;2022-07-05T10:50:02;0.00;;;0.00;;
60896;SDS011;46749;32.932;-117.130;2022-07-05T10:52:29;0.10;;;0.10;;
60896;SDS011;46749;32.932;-117.130;2022-07-05T10:58:00;0.05;;;0.05;;
60896;SDS011;46749;32.932;-117.130;2022-07-05T11:00:46;0.00;;;0.00;;
60896;SDS011;46749;32.932;-117.130;2022-07-05T11:06:00;0.10;;;0.10;;
60896;SDS011;46749;32.932;-117.130;2022-07-05T11:08:28;0.00;;;0.00;;
60896;SDS011;46749;32.932;-117.130;2022-07-05T11:11:11;0.10;;;0.10;;
60896;SDS011;46749;32.932;-117.130;2022-07-05T11:13:42;0.10;;;0.10;;
60896;SDS011;46749;32.932;-117.130;2022-07-05T11:16:26;0.00;;;0.00;;
60896;SDS011;46749;32.932;-117.130;2022-07-05T11:19:14;0.00;;;0.00;;
60896;SDS011;46749;32.932;-117.130;2022-07-05T11:21:59;0.10;;;0.03;;
60896;SDS011;46749;32.932;-117.130;2022-07-05T11:24:27;0.00;;;0.00;;
60896;SDS011;46749;32.932;-117.130;2022-07-05T11:26:57;0.08;;;0.08;;
60896;SDS011;46749;32.932;-117.130;2022-07-05T11:29:43;0.00;;;0.00;;
60896;SDS011;46749;32.932;-117.130;2022-07-05T11:32:26;0.08;;;0.08;;
60896;SDS011;46749;32.932;-117.130;2022-07-05T11:35:17;0.10;;;0.10;;
60896;SDS011;46749;32.932;-117.130;2022-07-05T11:37:58;0.10;;;0.10;;
60896;SDS011;46749;32.932;-117.130;2022-07-05T11:40:33;0.00;;;0.00;;
60896;SDS011;46749;32.932;-117.130;2022-07-05T11:43:03;0.00;;;0.00;;
60896;SDS011;46749;32.932;-117.130;2022-07-05T11:45:32;0.05;;;0.05;;
60896;SDS011;46749;32.932;-117.130;2022-07-05T11:47:59;0.00;;;0.00;;
60896;SDS011;46749;32.932;-117.130;2022-07-05T11:50:33;0.00;;;0.00;;
60896;SDS011;46749;32.932;-117.130;2022-07-05T11:53:00;0.08;;;0.00;;
60896;SDS011;46749;32.932;-117.130;2022-07-05T11:55:28;0.00;;;0.00;;
60896;SDS011;46749;32.932;-117.130;2022-07-05T11:57:56;0.10;;;0.00;;
60896;SDS011;46749;32.932;-117.130;2022-07-05T12:00:33;0.00;;;0.00;;
60896;SDS011;46749;32.932;-117.130;2022-07-05T12:03:12;0.10;;;0.10;;
60896;SDS011;46749;32.932;-117.130;2022-07-05T12:05:39;0.00;;;0.00;;
60896;SDS011;46749;32.932;-117.130;2022-07-05T12:08:06;0.00;;;0.00;;
60896;SDS011;46749;32.932;-117.130;2022-07-05T12:10:32;0.10;;;0.10;;
60896;SDS011;46749;32.932;-117.130;2022-07-05T12:13:17;0.00;;;0.00;;
60896;SDS011;46749;32.932;-117.130;2022-07-05T12:15:43;0.00;;;0.00;;
60896;SDS011;46749;32.932;-117.130;2022-07-05T12:18:11;0.00;;;0.00;;
60896;SDS011;46749;32.932;-117.130;2022-07-05T12:20:39;0.20;;;0.00;;
60896;SDS011;46749;32.932;-117.130;2022-07-05T12:23:06;0.10;;;0.10;;
60896;SDS011;46749;32.932;-117.130;2022-07-05T12:25:33;0.00;;;0.00;;
60896;SDS011;46749;32.932;-117.130;2022-07-05T12:28:00;0.00;;;0.00;;
60896;SDS011;46749;32.932;-117.130;2022-07-05T12:30:30;0.00;;;0.00;;
60896;SDS011;46749;32.932;-117.130;2022-07-05T12:32:58;0.08;;;0.08;;
60896;SDS011;46749;32.932;-117.130;2022-07-05T12:35:36;0.03;;;0.03;;
60896;SDS011;46749;32.932;-117.130;2022-07-05T12:38:10;0.00;;;0.00;;
60896;SDS011;46749;32.932;-117.130;2022-07-05T12:40:40;0.10;;;0.10;;
60896;SDS011;46749;32.932;-117.130;2022-07-05T12:43:08;0.00;;;0.00;;
60896;SDS011;46749;32.932;-117.130;2022-07-05T12:45:37;0.00;;;0.00;;
60896;SDS011;46749;32.932;-117.130;2022-07-05T12:48:08;0.10;;;0.10;;
60896;SDS011;46749;32.932;-117.130;2022-07-05T12:53:15;0.00;;;0.00;;
60896;SDS011;46749;32.932;-117.130;2022-07-05T12:56:01;0.10;;;0.10;;
60896;SDS011;46749;32.932;-117.130;2022-07-05T12:58:50;0.00;;;0.00;;
60896;SDS011;46749;32.932;-117.130;2022-07-05T13:01:31;0.00;;;0.00;;
60896;SDS011;46749;32.932;-117.130;2022-07-05T13:04:01;0.00;;;0.00;;
60896;SDS011;46749;32.932;-117.130;2022-07-05T13:12:06;0.98;;;0.10;;
60896;SDS011;46749;32.932;-117.130;2022-07-05T13:14:47;0.00;;;0.00;;
60896;SDS011;46749;32.932;-117.130;2022-07-05T13:19:44;0.08;;;0.08;;
60896;SDS011;46749;32.932;-117.130;2022-07-05T13:22:11;0.00;;;0.00;;
60896;SDS011;46749;32.932;-117.130;2022-07-05T13:24:39;0.10;;;0.10;;
60896;SDS011;46749;32.932;-117.130;2022-07-05T13:27:08;0.00;;;0.00;;
60896;SDS011;46749;32.932;-117.130;2022-07-05T13:29:35;0.10;;;0.10;;
60896;SDS011;46749;32.932;-117.130;2022-07-05T13:32:02;0.00;;;0.00;;
60896;SDS011;46749;32.932;-117.130;2022-07-05T13:34:28;0.00;;;0.00;;
60896;SDS011;46749;32.932;-117.130;2022-07-05T13:36:55;0.00;;;0.00;;
60896;SDS011;46749;32.932;-117.130;2022-07-05T13:39:23;0.00;;;0.00;;
60896;SDS011;46749;32.932;-117.130;2022-07-05T13:41:50;0.10;;;0.00;;
60896;SDS011;46749;32.932;-117.130;2022-07-05T13:44:19;0.00;;;0.00;;
60896;SDS011;46749;32.932;-117.130;2022-07-05T13:46:46;0.43;;;0.00;;
60896;SDS011;46749;32.932;-117.130;2022-07-05T13:49:12;0.35;;;0.10;;
60896;SDS011;46749;32.932;-117.130;2022-07-05T13:51:38;0.20;;;0.00;;
60896;SDS011;46749;32.932;-117.130;2022-07-05T13:54:05;0.00;;;0.00;;
60896;SDS011;46749;32.932;-117.130;2022-07-05T13:56:31;0.05;;;0.05;;
60896;SDS011;46749;32.932;-117.130;2022-07-05T13:58:58;0.00;;;0.00;;
60896;SDS011;46749;32.932;-117.130;2022-07-05T14:01:25;0.00;;;0.00;;
60896;SDS011;46749;32.932;-117.130;2022-07-05T14:03:56;0.00;;;0.00;;
60896;SDS011;46749;32.932;-117.130;2022-07-05T14:06:27;0.00;;;0.00;;
60896;SDS011;46749;32.932;-117.130;2022-07-05T14:08:56;0.25;;;0.10;;
60896;SDS011;46749;32.932;-117.130;2022-07-05T14:11:24;0.00;;;0.00;;
60896;SDS011;46749;32.932;-117.130;2022-07-05T14:13:53;0.00;;;0.00;;
60896;SDS011;46749;32.932;-117.130;2022-07-05T14:16:20;0.05;;;0.05;;
60896;SDS011;46749;32.932;-117.130;2022-07-05T14:18:46;0.00;;;0.00;;
60896;SDS011;46749;32.932;-117.130;2022-07-05T14:21:13;0.08;;;0.08;;
60896;SDS011;46749;32.932;-117.130;2022-07-05T14:23:42;0.00;;;0.00;;
60896;SDS011;46749;32.932;-117.130;2022-07-05T14:26:12;0.10;;;0.10;;
60896;SDS011;46749;32.932;-117.130;2022-07-05T14:28:38;0.00;;;0.00;;
60896;SDS011;46749;32.932;-117.130;2022-07-05T14:31:05;0.00;;;0.00;;
60896;SDS011;46749;32.932;-117.130;2022-07-05T14:33:31;0.00;;;0.00;;
60896;SDS011;46749;32.932;-117.130;2022-07-05T14:35:58;0.00;;;0.00;;
60896;SDS011;46749;32.932;-117.130;2022-07-05T14:38:24;0.00;;;0.00;;
60896;SDS011;46749;32.932;-117.130;2022-07-05T14:40:50;0.10;;;0.10;;
60896;SDS011;46749;32.932;-117.130;2022-07-05T14:43:16;0.00;;;0.00;;
60896;SDS011;46749;32.932;-117.130;2022-07-05T14:45:42;0.10;;;0.00;;